Time;durP1;ratioP1;P1;durP2;ratioP2;P2;SDS_P1;SDS_P2;PMS_P1;PMS_P2;Temp;Humidity;BMP_temperature;BMP_pressure;BME280_temperature;BME280_humidity;BME280_pressure;Samples;Min_cycle;Max_cycle;Signal;HPM_P1;HPM_P2
2020/12/01 00:01:18;;;;;;;24.93;17.17;;;3.70;99.90;;;;;;5077449;28;20225;-66
2020/12/01 00:03:44;;;;;;;25.10;15.97;;;3.80;99.90;;;;;;5077580;28;20205;-67
2020/12/01 00:06:10;;;;;;;22.83;15.93;;;3.80;99.90;;;;;;5077387;28;20562;-66
2020/12/01 00:08:38;;;;;;;23.63;15.80;;;3.90;99.90;;;;;;5076992;28;20208;-66
2020/12/01 00:11:04;;;;;;;23.23;15.27;;;3.90;99.90;;;;;;5076744;28;20224;-66
2020/12/01 00:13:30;;;;;;;23.30;15.23;;;3.90;99.90;;;;;;5076836;28;20209;-66
2020/12/01 00:15:57;;;;;;;23.37;15.43;;;4.00;99.90;;;;;;5077325;28;20204;-66
2020/12/01 00:18:24;;;;;;;22.03;15.23;;;4.00;99.90;;;;;;5077188;28;20205;-66
2020/12/01 00:20:50;;;;;;;23.13;16.50;;;4.10;99.90;;;;;;5076997;28;20256;-66
2020/12/01 00:23:17;;;;;;;21.63;15.63;;;4.00;99.90;;;;;;5075978;28;20493;-66
2020/12/01 00:25:44;;;;;;;24.57;15.73;;;4.00;99.90;;;;;;5076800;28;20205;-66
2020/12/01 00:28:11;;;;;;;24.43;16.60;;;4.00;99.90;;;;;;5076358;28;20208;-66
2020/12/01 00:30:37;;;;;;;26.10;16.07;;;4.00;99.90;;;;;;5076739;28;20232;-66
2020/12/01 00:33:03;;;;;;;22.63;15.70;;;3.90;99.90;;;;;;5077391;28;20566;-66
2020/12/01 00:35:31;;;;;;;22.60;15.23;;;3.90;99.90;;;;;;5076287;28;20204;-66
2020/12/01 00:37:57;;;;;;;22.90;16.10;;;3.70;99.90;;;;;;5076627;28;20229;-66
2020/12/01 00:40:24;;;;;;;24.83;16.07;;;3.70;99.90;;;;;;5076347;28;20229;-66
2020/12/01 00:42:50;;;;;;;22.73;15.53;;;3.70;99.90;;;;;;5076354;28;20211;-66
2020/12/01 00:45:17;;;;;;;24.07;16.33;;;3.60;99.90;;;;;;5075932;28;20208;-66
2020/12/01 00:47:44;;;;;;;26.47;16.57;;;3.60;99.90;;;;;;5075489;28;20687;-66
2020/12/01 00:50:14;;;;;;;22.77;15.70;;;3.70;99.90;;;;;;5076790;28;20314;-66
2020/12/01 00:52:41;;;;;;;21.37;15.00;;;3.60;99.90;;;;;;5075877;28;20201;-66
2020/12/01 00:55:08;;;;;;;24.33;15.50;;;3.50;99.90;;;;;;5075672;28;20209;-66
2020/12/01 00:57:34;;;;;;;22.90;15.73;;;3.50;99.90;;;;;;5075780;28;20220;-66
2020/12/01 01:00:00;;;;;;;24.93;15.93;;;3.30;99.90;;;;;;5075098;28;20747;-66
2020/12/01 01:02:27;;;;;;;24.37;16.20;;;3.20;99.90;;;;;;5075324;28;20205;-66
2020/12/01 01:04:53;;;;;;;27.73;17.67;;;3.00;99.90;;;;;;5074845;28;20676;-67
2020/12/01 01:07:20;;;;;;;22.50;15.17;;;2.90;99.90;;;;;;5074458;28;20212;-66
2020/12/01 01:09:47;;;;;;;23.20;16.37;;;2.80;99.90;;;;;;5074187;28;20701;-66
2020/12/01 01:12:14;;;;;;;21.93;13.87;;;3.00;99.90;;;;;;5075245;28;20216;-66
2020/12/01 01:14:41;;;;;;;24.13;15.73;;;3.10;99.90;;;;;;5075029;28;20272;-66
2020/12/01 01:17:08;;;;;;;23.20;15.03;;;3.10;99.90;;;;;;5075286;28;20221;-66
2020/12/01 01:19:34;;;;;;;25.10;16.37;;;3.30;99.90;;;;;;5075253;28;20585;-66
2020/12/01 01:22:00;;;;;;;20.20;14.60;;;3.20;99.90;;;;;;5075624;28;20356;-66
2020/12/01 01:24:26;;;;;;;21.00;14.80;;;3.40;99.90;;;;;;5074714;28;20213;-66
2020/12/01 01:26:54;;;;;;;23.10;14.97;;;3.30;99.90;;;;;;5075600;28;20205;-66
2020/12/01 01:29:22;;;;;;;22.87;14.97;;;3.30;99.90;;;;;;5074653;28;20208;-66
2020/12/01 01:31:52;;;;;;;22.33;15.23;;;3.30;99.90;;;;;;5074659;28;20213;-66
2020/12/01 01:34:18;;;;;;;20.93;14.60;;;3.40;99.90;;;;;;5074752;28;20507;-66
2020/12/01 01:36:44;;;;;;;26.70;15.23;;;3.50;99.90;;;;;;5074427;28;20235;-67
2020/12/01 01:39:10;;;;;;;19.60;14.60;;;3.60;99.90;;;;;;5071982;28;20213;-66
2020/12/01 01:41:38;;;;;;;22.53;14.83;;;3.50;99.90;;;;;;5072230;28;20220;-65
2020/12/01 01:44:16;;;;;;;20.20;14.30;;;3.70;99.90;;;;;;5071896;28;20213;-64
2020/12/01 01:46:44;;;;;;;20.43;13.27;;;3.80;99.90;;;;;;5072069;28;20204;-65
2020/12/01 01:49:14;;;;;;;21.80;14.03;;;3.90;99.90;;;;;;5071691;28;20201;-65
2020/12/01 01:51:46;;;;;;;20.23;13.20;;;4.00;99.90;;;;;;5071976;28;20236;-65
2020/12/01 01:54:12;;;;;;;20.67;13.63;;;4.00;99.90;;;;;;5071800;28;20213;-65
2020/12/01 01:56:42;;;;;;;21.17;14.00;;;4.10;99.90;;;;;;5072580;28;20568;-65
2020/12/01 01:59:11;;;;;;;21.40;13.97;;;4.10;99.90;;;;;;5072599;28;20231;-65
2020/12/01 02:01:37;;;;;;;19.67;13.17;;;4.20;99.90;;;;;;5072271;28;20228;-64
2020/12/01 02:04:06;;;;;;;21.30;15.43;;;4.10;99.90;;;;;;5071934;28;20209;-65
2020/12/01 02:06:37;;;;;;;20.40;13.90;;;4.20;99.90;;;;;;5072204;28;20201;-64
2020/12/01 02:09:07;;;;;;;19.90;13.73;;;4.20;99.90;;;;;;5071897;28;20209;-64
2020/12/01 02:11:36;;;;;;;19.63;13.37;;;4.20;99.90;;;;;;5072244;28;20233;-64
2020/12/01 02:14:08;;;;;;;18.77;13.57;;;4.30;99.90;;;;;;5071711;28;20205;-64
2020/12/01 02:16:49;;;;;;;17.63;12.63;;;4.40;99.90;;;;;;5072082;28;20695;-64
2020/12/01 02:19:20;;;;;;;19.17;12.53;;;4.50;99.90;;;;;;5072203;28;20208;-65
2020/12/01 02:21:46;;;;;;;19.27;13.13;;;4.70;99.90;;;;;;5072016;28;20221;-65
2020/12/01 02:24:16;;;;;;;21.47;14.07;;;4.70;99.90;;;;;;5071670;28;20231;-64
2020/12/01 02:26:45;;;;;;;20.17;13.10;;;4.80;99.90;;;;;;5071703;28;20201;-65
2020/12/01 02:29:13;;;;;;;20.23;13.03;;;4.80;99.90;;;;;;5071354;28;20205;-64
2020/12/01 02:31:40;;;;;;;18.83;12.53;;;4.90;99.90;;;;;;5071464;28;20220;-64
2020/12/01 02:34:08;;;;;;;17.77;13.17;;;4.90;99.90;;;;;;5071026;28;20209;-64
2020/12/01 02:36:34;;;;;;;19.23;13.20;;;4.90;99.90;;;;;;5071469;28;20602;-64
2020/12/01 02:39:01;;;;;;;17.40;12.73;;;5.00;99.90;;;;;;5071356;28;20568;-65
2020/12/01 02:41:27;;;;;;;16.73;12.17;;;5.00;99.90;;;;;;5072463;28;20221;-65
2020/12/01 02:43:54;;;;;;;20.53;13.40;;;5.10;99.90;;;;;;5072239;28;20325;-65
2020/12/01 02:46:20;;;;;;;18.57;12.50;;;5.20;99.90;;;;;;5071309;28;20212;-65
2020/12/01 02:48:46;;;;;;;19.20;13.13;;;5.20;99.90;;;;;;5071293;28;20657;-65
2020/12/01 02:51:12;;;;;;;16.83;11.77;;;5.20;99.90;;;;;;5071196;28;20228;-65
2020/12/01 02:53:39;;;;;;;16.87;11.73;;;5.20;99.90;;;;;;5071790;28;20212;-65
2020/12/01 02:56:05;;;;;;;19.13;13.53;;;5.10;99.90;;;;;;5071484;28;20211;-65
2020/12/01 02:58:31;;;;;;;19.77;13.30;;;5.10;99.90;;;;;;5070748;28;20701;-64
2020/12/01 03:00:58;;;;;;;18.13;12.80;;;5.10;99.90;;;;;;5071162;28;20236;-65
2020/12/01 03:03:25;;;;;;;18.83;12.87;;;5.10;99.90;;;;;;5070998;28;20209;-65
2020/12/01 03:05:51;;;;;;;18.10;12.53;;;5.00;99.90;;;;;;5071095;28;20215;-65
2020/12/01 03:08:17;;;;;;;18.80;13.17;;;5.00;99.90;;;;;;5070464;28;20200;-65
2020/12/01 03:10:43;;;;;;;18.03;12.63;;;4.90;99.90;;;;;;5071183;28;20229;-65
2020/12/01 03:13:09;;;;;;;16.83;11.63;;;4.90;99.90;;;;;;5070961;28;20204;-64
2020/12/01 03:15:36;;;;;;;17.47;11.40;;;4.90;99.90;;;;;;5070635;28;20262;-64
2020/12/01 03:18:03;;;;;;;15.00;11.00;;;4.70;99.90;;;;;;5070842;28;20220;-65
2020/12/01 03:20:29;;;;;;;16.23;11.10;;;4.80;99.90;;;;;;5070845;28;20691;-65
2020/12/01 03:22:55;;;;;;;16.37;10.40;;;4.80;99.90;;;;;;5070763;28;20208;-65
2020/12/01 03:25:21;;;;;;;15.33;10.67;;;4.80;99.90;;;;;;5070367;28;20212;-65
2020/12/01 03:27:47;;;;;;;14.87;10.70;;;4.90;99.90;;;;;;5070429;28;20209;-65
2020/12/01 03:30:14;;;;;;;15.63;10.23;;;4.90;99.90;;;;;;5070611;28;20225;-65
2020/12/01 03:32:40;;;;;;;14.63;9.87;;;4.90;99.90;;;;;;5071053;28;20700;-65
2020/12/01 03:35:07;;;;;;;14.23;9.93;;;4.80;99.90;;;;;;5070531;28;20209;-65
2020/12/01 03:37:33;;;;;;;15.50;9.23;;;4.90;99.90;;;;;;5070780;28;20327;-65
2020/12/01 03:39:59;;;;;;;12.90;8.83;;;4.90;99.90;;;;;;5070578;28;20239;-65
2020/12/01 03:42:26;;;;;;;12.00;8.63;;;5.00;99.90;;;;;;5070450;28;20673;-64
2020/12/01 03:44:52;;;;;;;12.27;8.43;;;5.10;99.90;;;;;;5070005;28;20688;-64
2020/12/01 03:47:18;;;;;;;11.27;7.83;;;5.10;99.90;;;;;;5070491;28;20579;-64
2020/12/01 03:49:44;;;;;;;12.57;8.03;;;5.20;99.90;;;;;;5070095;28;20282;-64
2020/12/01 03:52:11;;;;;;;10.90;8.10;;;5.10;99.90;;;;;;5070736;28;20212;-65
2020/12/01 03:54:37;;;;;;;10.87;7.83;;;5.10;99.90;;;;;;5069872;28;20681;-64
2020/12/01 03:57:03;;;;;;;13.17;7.90;;;5.20;99.90;;;;;;5070622;28;20228;-64
2020/12/01 03:59:30;;;;;;;11.13;7.97;;;5.30;99.90;;;;;;5073692;28;20209;-65
2020/12/01 04:01:56;;;;;;;10.27;7.17;;;5.20;99.90;;;;;;5073837;28;20205;-65
2020/12/01 04:04:28;;;;;;;12.33;8.00;;;5.20;99.90;;;;;;5073589;28;20205;-64
2020/12/01 04:06:55;;;;;;;9.87;6.93;;;5.20;99.90;;;;;;5073951;28;20665;-66
2020/12/01 04:09:22;;;;;;;9.93;6.90;;;5.30;99.90;;;;;;5073677;28;20215;-64
2020/12/01 04:11:48;;;;;;;11.33;7.00;;;5.20;99.90;;;;;;5073810;28;20609;-64
2020/12/01 04:14:14;;;;;;;9.10;6.73;;;5.20;99.90;;;;;;5073680;28;20215;-65
2020/12/01 04:16:40;;;;;;;10.40;6.90;;;5.30;99.90;;;;;;5073603;28;20224;-65
2020/12/01 04:19:07;;;;;;;9.67;6.27;;;5.30;99.90;;;;;;5073262;28;20216;-64
2020/12/01 04:21:33;;;;;;;10.13;7.20;;;5.20;99.90;;;;;;5073317;28;20221;-64
2020/12/01 04:23:59;;;;;;;11.67;7.23;;;5.30;99.90;;;;;;5073604;28;20205;-65
2020/12/01 04:26:26;;;;;;;11.03;7.30;;;5.60;99.90;;;;;;5073479;28;20201;-64
2020/12/01 04:28:52;;;;;;;10.87;7.40;;;5.50;99.90;;;;;;5073406;28;20209;-65
2020/12/01 04:31:18;;;;;;;10.70;7.20;;;5.50;99.90;;;;;;5073224;28;20232;-65
2020/12/01 04:33:45;;;;;;;11.07;8.13;;;5.60;99.90;;;;;;5073425;28;20212;-64
2020/12/01 04:36:11;;;;;;;10.13;7.37;;;5.60;99.90;;;;;;5073644;28;20220;-64
2020/12/01 04:38:37;;;;;;;12.10;7.73;;;5.70;99.90;;;;;;5073214;28;20225;-65
2020/12/01 04:41:04;;;;;;;10.77;8.50;;;5.70;99.90;;;;;;5073377;28;20275;-65
2020/12/01 04:43:34;;;;;;;12.73;9.10;;;5.80;99.90;;;;;;5073030;28;20622;-65
2020/12/01 04:46:01;;;;;;;11.83;7.73;;;5.80;99.90;;;;;;5073305;28;20208;-65
2020/12/01 04:48:36;;;;;;;13.40;8.77;;;5.60;99.90;;;;;;5073153;28;20197;-65
2020/12/01 04:51:15;;;;;;;12.57;8.23;;;5.70;99.90;;;;;;5073379;28;20231;-65
2020/12/01 04:54:26;;;;;;;12.70;8.53;;;5.70;99.90;;;;;;5072722;28;20217;-64
2020/12/01 04:57:24;;;;;;;10.97;8.07;;;5.80;99.90;;;;;;5051561;28;20287;-65
2020/12/01 05:00:14;;;;;;;10.40;7.70;;;5.80;99.90;;;;;;5072561;28;20228;-64
2020/12/01 05:02:59;;;;;;;11.07;7.73;;;5.80;99.90;;;;;;5073437;28;20233;-65
2020/12/01 05:05:47;;;;;;;11.53;8.27;;;5.70;99.90;;;;;;5072712;28;20729;-65
2020/12/01 05:08:39;;;;;;;12.17;8.73;;;5.70;99.90;;;;;;5072194;28;20201;-65
2020/12/01 05:11:17;;;;;;;12.07;8.30;;;5.80;99.90;;;;;;5072600;28;20228;-66
2020/12/01 05:13:47;;;;;;;11.27;8.20;;;5.80;99.90;;;;;;5072231;28;20700;-65
2020/12/01 05:16:27;;;;;;;12.90;8.90;;;5.80;99.90;;;;;;5072619;28;20235;-65
2020/12/01 05:18:53;;;;;;;12.90;8.77;;;5.80;99.90;;;;;;5072225;28;20211;-65
2020/12/01 05:21:25;;;;;;;12.33;8.70;;;5.80;99.90;;;;;;5072299;28;20228;-65
2020/12/01 05:23:52;;;;;;;15.07;9.60;;;5.90;99.90;;;;;;5072383;28;20623;-65
2020/12/01 05:26:20;;;;;;;12.80;8.67;;;5.90;99.90;;;;;;5072403;28;20569;-64
2020/12/01 05:28:48;;;;;;;13.93;8.47;;;5.80;99.90;;;;;;5072315;28;20205;-64
2020/12/01 05:31:18;;;;;;;14.60;9.70;;;5.90;99.90;;;;;;5071973;28;20221;-65
2020/12/01 05:33:45;;;;;;;19.80;13.23;;;5.80;99.90;;;;;;5071909;28;20205;-65
2020/12/01 05:36:19;;;;;;;18.50;11.27;;;5.90;99.90;;;;;;5072229;28;20217;-65
2020/12/01 05:38:57;;;;;;;17.10;11.07;;;5.90;99.90;;;;;;5072083;28;20233;-65
2020/12/01 05:41:26;;;;;;;14.30;9.80;;;5.90;99.90;;;;;;5071978;28;20279;-65
2020/12/01 05:43:55;;;;;;;15.70;10.03;;;5.90;99.90;;;;;;5071783;28;20208;-65
2020/12/01 05:46:35;;;;;;;18.60;12.50;;;5.80;99.90;;;;;;5071773;28;20712;-64
2020/12/01 05:49:05;;;;;;;15.50;9.63;;;5.80;99.90;;;;;;5071773;28;20608;-65
2020/12/01 05:51:42;;;;;;;14.90;9.73;;;5.80;99.90;;;;;;5072236;28;20580;-64
2020/12/01 05:54:15;;;;;;;14.20;10.33;;;5.80;99.90;;;;;;5071850;28;20220;-64
2020/12/01 05:56:47;;;;;;;27.47;16.73;;;5.80;99.90;;;;;;5071672;28;20653;-65
2020/12/01 05:59:16;;;;;;;16.73;10.40;;;5.80;99.90;;;;;;5071318;28;20904;-64
2020/12/01 06:01:45;;;;;;;20.03;12.40;;;5.80;99.90;;;;;;5071539;28;20225;-65
2020/12/01 06:04:13;;;;;;;17.63;10.73;;;5.80;99.90;;;;;;5071488;28;20208;-64
2020/12/01 06:07:01;;;;;;;23.80;14.13;;;5.80;99.90;;;;;;5071995;28;20403;-64
2020/12/01 06:10:13;;;;;;;22.47;16.43;;;5.70;99.90;;;;;;5071481;28;20291;-65
2020/12/01 06:13:04;;;;;;;16.33;10.50;;;5.80;99.90;;;;;;5072230;28;20204;-64
2020/12/01 06:15:32;;;;;;;19.13;11.40;;;5.80;99.90;;;;;;5071917;28;20352;-63
2020/12/01 06:18:05;;;;;;;22.07;12.20;;;5.80;99.90;;;;;;5071543;28;20254;-64
2020/12/01 06:20:36;;;;;;;17.43;11.47;;;5.80;99.90;;;;;;5071382;28;20256;-64
2020/12/01 06:23:33;;;;;;;24.57;17.20;;;5.80;99.90;;;;;;5072044;28;20633;-65
2020/12/01 06:26:44;;;;;;;17.37;12.70;;;5.80;99.90;;;;;;5071819;28;20212;-64
2020/12/01 06:29:46;;;;;;;17.47;11.80;;;5.80;99.90;;;;;;5071335;28;20205;-64
2020/12/01 06:32:46;;;;;;;20.03;12.93;;;5.80;99.90;;;;;;5072130;28;20216;-63
2020/12/01 06:35:55;;;;;;;20.53;12.47;;;5.80;99.90;;;;;;5071628;28;20212;-63
2020/12/01 06:38:40;;;;;;;23.37;14.53;;;5.80;99.90;;;;;;5071220;28;20444;-62
2020/12/01 06:41:15;;;;;;;22.40;13.60;;;5.80;99.90;;;;;;5071962;28;20248;-65
2020/12/01 06:43:45;;;;;;;21.90;13.83;;;5.80;99.90;;;;;;5072067;28;20215;-66
2020/12/01 06:46:37;;;;;;;35.03;20.50;;;5.90;99.90;;;;;;5072320;28;20209;-67
2020/12/01 06:49:04;;;;;;;26.47;16.20;;;5.90;99.90;;;;;;5071183;28;20232;-69
2020/12/01 06:51:32;;;;;;;19.57;12.40;;;5.90;99.90;;;;;;5071378;28;20801;-69
2020/12/01 06:54:07;;;;;;;21.17;11.90;;;6.00;99.90;;;;;;5070691;28;20217;-67
2020/12/01 06:56:33;;;;;;;21.03;13.27;;;6.00;99.90;;;;;;5071330;28;20215;-66
2020/12/01 06:59:06;;;;;;;26.33;18.37;;;6.00;99.90;;;;;;5070811;28;20770;-67
2020/12/01 07:01:33;;;;;;;19.80;13.43;;;6.00;99.90;;;;;;5071723;28;20701;-69
2020/12/01 07:04:02;;;;;;;17.03;11.83;;;6.00;99.90;;;;;;5070780;28;20635;-68
2020/12/01 07:06:43;;;;;;;17.17;11.53;;;6.00;99.90;;;;;;5071257;28;20205;-66
2020/12/01 07:09:12;;;;;;;20.07;12.17;;;5.90;99.90;;;;;;5070819;28;20204;-67
2020/12/01 07:11:52;;;;;;;17.10;12.57;;;6.00;99.90;;;;;;5071271;28;20224;-66
2020/12/01 07:14:22;;;;;;;16.40;11.47;;;6.00;99.90;;;;;;5070492;28;20204;-66
2020/12/01 07:16:49;;;;;;;16.10;11.13;;;6.10;99.90;;;;;;5071041;28;20205;-67
2020/12/01 07:19:18;;;;;;;20.40;13.13;;;6.20;99.90;;;;;;5071149;28;20216;-67
2020/12/01 07:22:04;;;;;;;22.07;15.43;;;6.20;99.90;;;;;;5072802;28;20213;-68
2020/12/01 07:24:43;;;;;;;23.60;14.47;;;6.20;99.90;;;;;;5072741;28;20668;-68
2020/12/01 07:27:14;;;;;;;17.83;13.20;;;6.10;99.90;;;;;;5073441;28;20200;-68
2020/12/01 07:29:58;;;;;;;20.13;12.83;;;6.10;99.90;;;;;;5072958;28;20228;-67
2020/12/01 07:32:27;;;;;;;19.83;12.53;;;6.20;99.90;;;;;;5074049;28;20201;-67
2020/12/01 07:35:09;;;;;;;16.17;11.23;;;6.10;99.90;;;;;;5074821;28;20205;-68
2020/12/01 07:37:53;;;;;;;15.40;12.00;;;6.10;99.90;;;;;;5074408;28;20232;-69
2020/12/01 07:40:25;;;;;;;19.43;11.60;;;6.00;99.90;;;;;;5074794;28;20231;-67
2020/12/01 07:42:58;;;;;;;16.00;10.60;;;5.90;99.90;;;;;;5074908;28;20256;-67
2020/12/01 07:45:25;;;;;;;16.83;11.57;;;5.80;99.90;;;;;;5074623;28;20691;-67
2020/12/01 07:47:56;;;;;;;15.37;11.10;;;5.70;99.90;;;;;;5074744;28;20212;-67
2020/12/01 07:50:22;;;;;;;14.97;10.43;;;5.50;99.90;;;;;;5074297;28;20233;-67
2020/12/01 07:52:57;;;;;;;14.03;10.50;;;5.40;99.90;;;;;;5074169;28;20638;-60
2020/12/01 07:55:26;;;;;;;14.73;11.03;;;5.50;99.90;;;;;;5073708;28;20679;-62
2020/12/01 07:57:57;;;;;;;15.03;10.70;;;5.50;99.90;;;;;;5073370;28;20235;-63
2020/12/01 08:00:24;;;;;;;15.27;11.23;;;5.40;99.90;;;;;;5073999;28;20252;-62
2020/12/01 08:02:58;;;;;;;16.40;11.17;;;5.50;99.90;;;;;;5073909;28;20282;-62
2020/12/01 08:05:26;;;;;;;15.37;10.83;;;5.50;99.90;;;;;;5073604;28;20212;-63
2020/12/01 08:07:56;;;;;;;15.07;10.83;;;5.50;99.90;;;;;;5073495;28;20672;-62
2020/12/01 08:10:23;;;;;;;13.27;10.27;;;5.50;99.90;;;;;;5073681;28;20233;-62
2020/12/01 08:12:53;;;;;;;15.43;10.80;;;5.40;99.90;;;;;;5073462;28;20204;-65
2020/12/01 08:15:21;;;;;;;15.73;11.30;;;5.50;99.90;;;;;;5073723;28;20204;-62
2020/12/01 08:17:49;;;;;;;18.20;11.40;;;5.40;99.90;;;;;;5073250;28;20228;-62
2020/12/01 08:20:19;;;;;;;15.03;10.70;;;5.50;99.90;;;;;;5073598;28;20236;-62
2020/12/01 08:22:51;;;;;;;14.20;10.40;;;5.60;99.90;;;;;;5073468;28;20220;-63
2020/12/01 08:25:21;;;;;;;14.40;10.67;;;5.70;99.90;;;;;;5073360;28;20204;-62
2020/12/01 08:27:53;;;;;;;14.37;10.53;;;5.70;99.90;;;;;;5073283;28;20267;-62
2020/12/01 08:30:28;;;;;;;13.60;9.80;;;5.80;99.90;;;;;;5073735;28;20274;-62
2020/12/01 08:33:06;;;;;;;14.77;10.77;;;5.80;99.90;;;;;;5073613;28;20205;-62
2020/12/01 08:35:38;;;;;;;13.87;9.97;;;5.70;99.90;;;;;;5073430;28;20216;-62
2020/12/01 08:38:15;;;;;;;15.27;10.57;;;5.80;99.90;;;;;;5073224;28;20500;-62
2020/12/01 08:40:50;;;;;;;14.00;10.23;;;5.80;99.90;;;;;;5073511;28;20324;-61
2020/12/01 08:43:28;;;;;;;14.67;9.07;;;5.70;99.90;;;;;;5072964;28;20230;-62
2020/12/01 08:46:03;;;;;;;17.47;11.27;;;5.50;99.90;;;;;;5073442;28;20232;-62
2020/12/01 08:48:38;;;;;;;16.10;11.40;;;5.50;99.90;;;;;;5072960;28;20204;-62
2020/12/01 08:51:18;;;;;;;14.30;10.73;;;5.60;99.90;;;;;;5073197;28;20228;-62
2020/12/01 08:53:52;;;;;;;18.53;13.77;;;5.70;99.90;;;;;;5073311;28;20406;-63
2020/12/01 08:56:25;;;;;;;16.40;11.27;;;5.70;99.90;;;;;;5073404;28;20189;-63
2020/12/01 08:58:54;;;;;;;15.97;10.70;;;5.80;99.90;;;;;;5072809;28;20229;-62
2020/12/01 09:01:20;;;;;;;15.10;11.20;;;5.80;99.90;;;;;;5072712;28;20290;-63
2020/12/01 09:03:56;;;;;;;16.40;11.77;;;5.80;99.90;;;;;;5072397;28;20201;-65
2020/12/01 09:06:27;;;;;;;17.90;12.73;;;5.80;99.90;;;;;;5072637;28;20259;-64
2020/12/01 09:08:58;;;;;;;17.33;12.27;;;5.90;99.90;;;;;;5072699;28;20212;-63
2020/12/01 09:12:05;;;;;;;16.40;12.00;;;5.90;99.90;;;;;;5072637;28;20268;-63
2020/12/01 09:14:43;;;;;;;15.80;10.47;;;6.00;99.90;;;;;;5072124;28;20259;-64
2020/12/01 09:17:21;;;;;;;15.87;11.17;;;6.00;99.90;;;;;;5072389;28;20212;-62
2020/12/01 09:22:47;;;;;;;14.27;10.73;;;6.00;99.90;;;;;;5010163;28;20809;-63
2020/12/01 09:25:19;;;;;;;14.90;10.90;;;5.90;99.90;;;;;;5009578;28;20250;-63
2020/12/01 09:27:47;;;;;;;14.50;10.50;;;6.00;99.90;;;;;;5039610;28;20208;-62
2020/12/01 09:30:34;;;;;;;14.07;10.50;;;6.00;99.90;;;;;;5072556;28;20221;-64
2020/12/01 09:33:01;;;;;;;15.53;10.70;;;6.00;99.90;;;;;;5073197;28;20266;-62
2020/12/01 09:35:28;;;;;;;14.80;11.03;;;6.00;99.90;;;;;;5072405;28;20673;-62
2020/12/01 09:37:54;;;;;;;17.10;10.70;;;6.00;99.90;;;;;;5072491;28;20236;-63
2020/12/01 09:40:21;;;;;;;16.00;11.60;;;6.10;99.90;;;;;;5072451;28;20225;-62
2020/12/01 09:42:52;;;;;;;13.23;10.13;;;6.10;99.90;;;;;;5072487;28;20291;-63
2020/12/01 09:45:22;;;;;;;13.27;10.57;;;6.00;99.90;;;;;;5071970;28;20240;-62
2020/12/01 09:47:51;;;;;;;15.13;10.40;;;6.00;99.90;;;;;;5071606;28;20201;-62
2020/12/01 09:50:22;;;;;;;13.80;10.07;;;6.10;99.90;;;;;;5071825;28;20230;-64
2020/12/01 09:53:13;;;;;;;19.90;13.77;;;6.20;99.90;;;;;;5072230;28;20220;-63
2020/12/01 09:55:55;;;;;;;14.57;10.47;;;6.30;99.90;;;;;;5071053;28;20657;-63
2020/12/01 10:09:50;;;;;;;16.40;11.13;;;6.30;99.90;;;;;;5071122;28;20250;-63
2020/12/01 10:12:20;;;;;;;16.53;11.37;;;6.20;99.90;;;;;;5071507;28;20212;-62
2020/12/01 10:17:47;;;;;;;18.23;11.53;;;6.10;99.90;;;;;;5071559;28;20227;-63
2020/12/01 10:34:28;;;;;;;14.10;10.00;;;5.90;99.90;;;;;;5071131;28;20283;-63
2020/12/01 10:36:56;;;;;;;14.00;10.17;;;5.90;99.90;;;;;;5071387;28;20212;-65
2020/12/01 10:39:23;;;;;;;12.10;9.60;;;5.70;99.90;;;;;;5070697;28;20708;-64
2020/12/01 10:41:50;;;;;;;13.97;9.70;;;5.50;99.90;;;;;;5071335;28;20205;-63
2020/12/01 10:44:17;;;;;;;12.53;9.57;;;5.40;99.90;;;;;;5071025;28;20240;-64
2020/12/01 10:46:47;;;;;;;13.60;9.47;;;5.50;99.90;;;;;;5071365;28;20209;-64
2020/12/01 10:49:14;;;;;;;13.00;8.97;;;5.50;99.90;;;;;;5071193;28;20204;-64
2020/12/01 10:51:40;;;;;;;14.20;9.27;;;5.70;99.90;;;;;;5071326;28;20647;-64
2020/12/01 10:54:06;;;;;;;13.00;9.83;;;5.90;99.90;;;;;;5070595;28;20220;-64
2020/12/01 10:56:33;;;;;;;11.57;9.17;;;6.10;99.90;;;;;;5070837;28;20592;-64
2020/12/01 10:59:00;;;;;;;11.40;9.03;;;6.20;99.90;;;;;;5070592;28;20596;-65
2020/12/01 11:01:26;;;;;;;13.90;10.10;;;6.40;99.90;;;;;;5071040;28;20278;-64
2020/12/01 11:03:52;;;;;;;11.87;8.37;;;6.50;99.90;;;;;;5070656;28;20687;-65
2020/12/01 11:06:18;;;;;;;10.27;7.90;;;6.60;99.90;;;;;;5070748;28;20219;-64
2020/12/01 11:08:44;;;;;;;18.83;11.53;;;6.70;99.90;;;;;;5070543;28;20220;-64
2020/12/01 11:11:16;;;;;;;13.20;9.00;;;6.80;99.90;;;;;;5070744;28;20232;-64
2020/12/01 11:13:42;;;;;;;13.37;8.43;;;6.80;99.90;;;;;;5070464;28;20541;-65
2020/12/01 11:16:09;;;;;;;11.40;9.27;;;6.90;99.90;;;;;;5071085;28;20204;-65
2020/12/01 11:18:36;;;;;;;10.53;8.20;;;7.00;99.90;;;;;;5070568;28;20232;-64
2020/12/01 11:21:02;;;;;;;14.67;12.97;;;7.00;99.90;;;;;;5070787;28;20232;-64
2020/12/01 11:23:28;;;;;;;24.63;16.33;;;7.00;99.90;;;;;;5070336;28;20208;-64
2020/12/01 11:25:54;;;;;;;18.03;12.33;;;7.10;99.90;;;;;;5070905;28;20205;-65
2020/12/01 11:28:20;;;;;;;12.47;8.20;;;7.10;99.90;;;;;;5070866;28;20209;-64
2020/12/01 11:30:46;;;;;;;10.87;7.93;;;7.10;99.90;;;;;;5070908;28;20225;-64
2020/12/01 11:33:14;;;;;;;11.13;7.60;;;7.20;99.90;;;;;;5070619;28;20213;-65
2020/12/01 11:35:40;;;;;;;14.53;8.13;;;7.20;99.90;;;;;;5070367;28;20208;-64
2020/12/01 11:38:06;;;;;;;9.73;7.70;;;7.30;99.90;;;;;;5070331;28;20224;-64
2020/12/01 11:40:32;;;;;;;10.50;7.67;;;7.30;99.90;;;;;;5070294;28;20369;-65
2020/12/01 11:42:58;;;;;;;9.40;7.70;;;7.40;99.90;;;;;;5070877;28;20209;-65
2020/12/01 11:45:25;;;;;;;10.17;7.87;;;7.30;99.90;;;;;;5070564;28;20212;-65
2020/12/01 11:47:52;;;;;;;11.83;7.87;;;7.30;99.90;;;;;;5070758;28;20197;-65
2020/12/01 11:50:19;;;;;;;10.47;7.60;;;7.40;99.90;;;;;;5070717;28;20244;-63
2020/12/01 11:52:46;;;;;;;12.90;7.40;;;7.40;99.90;;;;;;5070503;28;20205;-65
2020/12/01 11:55:12;;;;;;;10.17;7.53;;;7.40;99.90;;;;;;5070546;28;20619;-64
2020/12/01 11:57:38;;;;;;;8.43;7.20;;;7.40;99.90;;;;;;5070887;28;20729;-63
2020/12/01 12:00:05;;;;;;;14.40;10.87;;;7.30;99.90;;;;;;5071543;28;20296;-64
2020/12/01 12:02:31;;;;;;;11.43;8.00;;;7.30;99.90;;;;;;5070823;28;20201;-64
2020/12/01 12:04:57;;;;;;;25.07;16.17;;;7.30;99.90;;;;;;5070515;28;20243;-64
2020/12/01 12:07:24;;;;;;;14.97;10.20;;;7.30;99.90;;;;;;5070566;28;20205;-64
2020/12/01 12:09:50;;;;;;;12.23;8.40;;;7.40;99.90;;;;;;5070229;28;20229;-64
2020/12/01 12:12:17;;;;;;;10.53;7.70;;;7.40;99.90;;;;;;5070721;28;20205;-64
2020/12/01 12:14:43;;;;;;;9.27;7.53;;;7.30;99.90;;;;;;5070090;28;20204;-64
2020/12/01 12:17:09;;;;;;;10.03;7.47;;;7.40;99.90;;;;;;5070449;28;20220;-64
2020/12/01 12:19:36;;;;;;;12.63;7.67;;;7.40;99.90;;;;;;5072247;28;20224;-64
2020/12/01 12:22:02;;;;;;;9.90;7.37;;;7.40;99.90;;;;;;5073360;28;20205;-64
2020/12/01 12:24:29;;;;;;;12.43;7.77;;;7.40;99.90;;;;;;5073166;28;20219;-64
2020/12/01 12:26:56;;;;;;;11.97;7.70;;;7.40;99.90;;;;;;5073298;28;20691;-64
2020/12/01 12:29:22;;;;;;;11.33;8.47;;;7.40;99.90;;;;;;5073290;28;20225;-64
2020/12/01 12:31:48;;;;;;;9.93;7.20;;;7.40;99.90;;;;;;5073569;28;20216;-64
2020/12/01 12:34:14;;;;;;;10.63;8.07;;;7.40;99.90;;;;;;5072118;28;20263;-64
2020/12/01 12:36:40;;;;;;;11.43;7.90;;;7.50;99.90;;;;;;5073192;28;20205;-64
2020/12/01 12:39:06;;;;;;;10.67;7.90;;;7.50;99.90;;;;;;5073015;28;20282;-64
2020/12/01 12:41:33;;;;;;;12.97;8.67;;;7.40;99.90;;;;;;5073472;28;20274;-64
2020/12/01 12:44:03;;;;;;;12.20;7.73;;;7.50;99.90;;;;;;5072947;28;20673;-65
2020/12/01 12:46:29;;;;;;;10.50;7.33;;;7.50;99.90;;;;;;5073299;28;20209;-64
2020/12/01 12:48:56;;;;;;;12.07;7.67;;;7.50;99.90;;;;;;5073087;28;20202;-64
2020/12/01 12:51:22;;;;;;;11.07;7.10;;;7.60;99.90;;;;;;5073126;28;20240;-64
2020/12/01 12:53:48;;;;;;;9.30;7.40;;;7.60;99.90;;;;;;5073182;28;20224;-64
2020/12/01 12:56:14;;;;;;;14.77;8.17;;;7.60;99.90;;;;;;5073664;28;20212;-64
2020/12/01 12:58:41;;;;;;;11.97;7.87;;;7.60;99.90;;;;;;5072731;28;20704;-65
2020/12/01 13:01:07;;;;;;;10.13;6.50;;;7.70;99.90;;;;;;5072849;28;20229;-64
2020/12/01 13:03:34;;;;;;;10.67;7.40;;;7.80;99.90;;;;;;5072606;28;20208;-65
2020/12/01 13:06:00;;;;;;;12.43;8.43;;;7.90;99.90;;;;;;5072745;28;20212;-65
2020/12/01 13:08:26;;;;;;;12.33;9.20;;;7.90;99.90;;;;;;5072462;28;20201;-65
2020/12/01 13:10:52;;;;;;;12.60;9.47;;;7.70;99.90;;;;;;5072820;28;20298;-65
2020/12/01 13:13:18;;;;;;;12.77;9.70;;;7.60;99.90;;;;;;5072865;28;20215;-65
2020/12/01 13:15:45;;;;;;;12.17;9.33;;;7.50;99.90;;;;;;5072457;28;20208;-65
2020/12/01 13:18:11;;;;;;;12.47;8.73;;;7.40;99.90;;;;;;5072228;28;20257;-64
2020/12/01 13:20:38;;;;;;;10.67;8.00;;;7.40;99.90;;;;;;5072465;28;20232;-64
2020/12/01 13:23:04;;;;;;;11.53;8.73;;;7.20;99.90;;;;;;5072598;28;20227;-64
2020/12/01 13:25:30;;;;;;;12.60;8.20;;;7.10;99.90;;;;;;5072692;28;20669;-64
2020/12/01 13:27:56;;;;;;;10.40;8.93;;;7.00;99.90;;;;;;5072563;28;20205;-65